Time;durP1;ratioP1;P1;durP2;ratioP2;P2;SDS_P1;SDS_P2;PMS_P1;PMS_P2;Temp;Humidity;BMP_temperature;BMP_pressure;BME280_temperature;BME280_humidity;BME280_pressure;Samples;Min_cycle;Max_cycle;Signal;HPM_P1;HPM_P2
2022/03/27 00:00:36;;;;;;;1.33;0.90;;;13.00;99.90;;;;;;5029241;28;20922;-74
2022/03/27 00:03:06;;;;;;;2.20;2.00;;;13.00;99.90;;;;;;5034115;28;20444;-73
2022/03/27 00:05:34;;;;;;;0.60;0.20;;;13.00;99.90;;;;;;5034381;28;20824;-73
2022/03/27 00:08:04;;;;;;;0.97;0.97;;;12.90;99.90;;;;;;5033435;28;20481;-74
2022/03/27 00:11:23;;;;;;;0.60;0.20;;;12.90;99.90;;;;;;5033661;28;20451;-74
2022/03/27 00:13:19;;;;;;;1.90;1.80;;;12.90;99.90;;;;;;5015088;28;20465;-74
2022/03/27 00:15:47;;;;;;;3.50;3.17;;;12.80;99.90;;;;;;5014134;28;20483;-73
2022/03/27 00:18:15;;;;;;;1.50;1.40;;;12.70;99.90;;;;;;5013695;28;20476;-73
2022/03/27 00:20:43;;;;;;;3.23;2.40;;;12.70;99.90;;;;;;5015964;28;20460;-73
2022/03/27 00:23:12;;;;;;;0.60;0.10;;;12.70;99.90;;;;;;5013579;28;20451;-73
2022/03/27 00:25:40;;;;;;;0.70;0.30;;;12.60;99.90;;;;;;5013795;28;20444;-74
2022/03/27 00:28:08;;;;;;;1.13;1.03;;;12.60;99.90;;;;;;5013587;28;20482;-73
2022/03/27 00:30:35;;;;;;;1.13;0.73;;;12.60;99.90;;;;;;5014123;28;20846;-74
2022/03/27 00:33:03;;;;;;;2.40;2.20;;;12.60;99.90;;;;;;5013974;28;20437;-74
2022/03/27 00:35:31;;;;;;;1.07;0.87;;;12.50;99.90;;;;;;5011517;28;20488;-74
2022/03/27 00:37:59;;;;;;;1.57;1.07;;;12.50;99.90;;;;;;5009421;28;20494;-74
2022/03/27 00:40:28;;;;;;;3.90;3.30;;;12.50;99.90;;;;;;5015692;28;20449;-74
2022/03/27 00:42:56;;;;;;;0.80;0.70;;;12.50;99.90;;;;;;5022134;28;20461;-72
2022/03/27 00:45:24;;;;;;;0.93;0.93;;;12.50;99.90;;;;;;5014935;28;20461;-74
2022/03/27 00:47:54;;;;;;;0.60;0.10;;;12.50;99.90;;;;;;5014328;28;20491;-72
2022/03/27 00:50:22;;;;;;;1.43;1.13;;;12.40;99.90;;;;;;5015385;28;20437;-73
2022/03/27 00:52:50;;;;;;;0.60;0.10;;;12.40;99.90;;;;;;5027848;28;20453;-73
2022/03/27 00:55:18;;;;;;;2.17;2.07;;;12.40;99.90;;;;;;5013688;28;20488;-74
2022/03/27 00:57:47;;;;;;;1.37;1.20;;;12.40;99.90;;;;;;5013507;28;20469;-73
2022/03/27 01:00:20;;;;;;;3.03;1.80;;;12.40;99.90;;;;;;5013826;28;20444;-73
2022/03/27 01:02:50;;;;;;;0.60;0.10;;;12.40;99.90;;;;;;5018393;28;20536;-72
2022/03/27 01:05:20;;;;;;;1.43;0.80;;;12.40;99.90;;;;;;5017295;28;20432;-74
2022/03/27 01:07:48;;;;;;;0.60;0.10;;;12.40;99.90;;;;;;5023406;28;20476;-73
2022/03/27 01:10:14;;;;;;;0.70;0.43;;;12.40;99.90;;;;;;5018046;28;20444;-73
2022/03/27 01:12:43;;;;;;;5.50;2.30;;;12.40;99.90;;;;;;5029596;28;20448;-74
2022/03/27 01:15:28;;;;;;;0.70;0.40;;;12.40;99.90;;;;;;5016302;28;20476;-74
2022/03/27 01:17:56;;;;;;;0.60;0.17;;;12.40;99.90;;;;;;5013024;28;20469;-73
2022/03/27 01:20:32;;;;;;;1.90;1.13;;;12.40;99.90;;;;;;5013909;28;20444;-74
2022/03/27 01:23:01;;;;;;;0.60;0.20;;;12.40;99.90;;;;;;5013752;28;20806;-73
2022/03/27 01:25:29;;;;;;;10.73;2.20;;;12.40;99.90;;;;;;5020078;28;20441;-75
2022/03/27 01:27:57;;;;;;;1.73;1.63;;;12.50;99.90;;;;;;5018278;28;20480;-74
2022/03/27 01:30:24;;;;;;;10.97;0.93;;;12.50;99.90;;;;;;5013563;28;20832;-74
2022/03/27 01:32:53;;;;;;;2.83;2.63;;;12.40;99.90;;;;;;5014536;28;20998;-73
2022/03/27 01:35:22;;;;;;;3.53;3.23;;;12.40;99.90;;;;;;5014027;28;20477;-73
2022/03/27 01:37:52;;;;;;;2.27;2.03;;;12.40;99.90;;;;;;5013477;28;20472;-73
2022/03/27 01:40:20;;;;;;;1.57;1.20;;;12.40;99.90;;;;;;5013368;28;20459;-73
2022/03/27 01:42:49;;;;;;;2.50;1.20;;;12.30;99.90;;;;;;5013353;28;20444;-74
2022/03/27 01:45:18;;;;;;;0.97;0.63;;;12.40;99.90;;;;;;5012809;28;20448;-74
2022/03/27 01:47:46;;;;;;;0.60;0.20;;;12.30;99.90;;;;;;5016781;28;20483;-73
2022/03/27 01:50:14;;;;;;;1.07;0.80;;;12.30;99.90;;;;;;5014296;28;20445;-73
2022/03/27 01:52:42;;;;;;;0.70;0.40;;;12.30;99.90;;;;;;5012561;28;20820;-73
2022/03/27 01:55:16;;;;;;;5.13;1.37;;;12.30;99.90;;;;;;5013791;28;20499;-73
2022/03/27 01:57:44;;;;;;;0.60;0.20;;;12.30;99.90;;;;;;5013746;28;20465;-73
2022/03/27 02:00:14;;;;;;;0.60;0.30;;;12.30;99.90;;;;;;5012362;28;20966;-74
2022/03/27 02:02:42;;;;;;;2.33;2.13;;;12.30;99.90;;;;;;5012568;28;20532;-75
2022/03/27 02:05:11;;;;;;;0.60;0.20;;;12.20;99.90;;;;;;5012536;28;20445;-74
2022/03/27 02:07:42;;;;;;;2.10;0.73;;;12.30;99.90;;;;;;5012249;28;20444;-74
2022/03/27 02:10:11;;;;;;;1.93;0.87;;;12.30;99.90;;;;;;5012883;28;20442;-74
2022/03/27 02:12:39;;;;;;;1.20;0.83;;;12.20;99.90;;;;;;5012322;28;20463;-74
2022/03/27 02:15:09;;;;;;;2.87;2.67;;;12.20;99.90;;;;;;5012571;28;20488;-74
2022/03/27 02:17:39;;;;;;;7.20;6.53;;;12.20;99.90;;;;;;5012126;28;20938;-74
2022/03/27 02:20:08;;;;;;;3.93;1.23;;;12.20;99.90;;;;;;5012492;28;20476;-72
2022/03/27 02:22:36;;;;;;;1.07;1.00;;;12.20;99.90;;;;;;5018267;28;20460;-74
2022/03/27 02:25:05;;;;;;;0.97;0.97;;;12.20;99.90;;;;;;5013672;28;20872;-73
2022/03/27 02:27:34;;;;;;;5.00;2.97;;;12.10;99.90;;;;;;5014182;28;20444;-74
2022/03/27 02:30:02;;;;;;;0.93;0.70;;;12.10;99.90;;;;;;5020679;28;20449;-73
2022/03/27 02:32:30;;;;;;;2.30;1.43;;;12.10;1.00;;;;;;5017989;28;20452;-73
2022/03/27 02:34:58;;;;;;;1.87;1.40;;;12.10;1.00;;;;;;5019437;28;20460;-73
2022/03/27 02:37:26;;;;;;;0.80;0.43;;;12.10;1.00;;;;;;5014968;28;20444;-74
2022/03/27 02:39:54;;;;;;;0.90;0.90;;;12.10;1.00;;;;;;5025419;28;20539;-74
2022/03/27 02:42:22;;;;;;;1.20;1.13;;;12.10;1.00;;;;;;5022029;28;20445;-74
2022/03/27 02:44:51;;;;;;;0.70;0.50;;;12.10;1.00;;;;;;5011436;28;20452;-74
2022/03/27 02:47:19;;;;;;;0.90;0.90;;;12.10;1.00;;;;;;5013773;28;20436;-74
2022/03/27 02:49:47;;;;;;;0.70;0.67;;;12.00;1.00;;;;;;5012455;28;20820;-74
2022/03/27 02:52:16;;;;;;;1.77;1.67;;;;;;;;;;5011581;28;20535;-73
2022/03/27 02:54:44;;;;;;;1.10;1.00;;;12.00;1.00;;;;;;5011782;28;20451;-73
2022/03/27 02:57:12;;;;;;;1.20;1.03;;;12.00;1.00;;;;;;5011665;28;20480;-73
2022/03/27 02:59:40;;;;;;;1.37;1.27;;;12.00;1.00;;;;;;5011442;28;20461;-73
2022/03/27 03:02:10;;;;;;;1.27;1.17;;;12.00;1.00;;;;;;5011385;28;20444;-73
2022/03/27 03:04:38;;;;;;;1.63;1.50;;;12.00;1.00;;;;;;5011663;28;20471;-73
2022/03/27 03:07:07;;;;;;;1.27;0.80;;;12.00;1.00;;;;;;5011383;28;20943;-74
2022/03/27 03:09:35;;;;;;;0.70;0.43;;;12.00;1.00;;;;;;5010833;28;20475;-74
2022/03/27 03:12:03;;;;;;;0.83;0.50;;;12.00;1.00;;;;;;5011840;28;20959;-73
2022/03/27 03:14:33;;;;;;;5.50;4.83;;;12.00;1.00;;;;;;5011060;28;20454;-74
2022/03/27 03:17:04;;;;;;;1.93;1.83;;;12.00;1.00;;;;;;5011508;28;20552;-73
2022/03/27 03:19:33;;;;;;;2.90;2.33;;;12.00;1.00;;;;;;5012172;28;20461;-74
2022/03/27 03:22:01;;;;;;;0.60;0.20;;;12.00;1.00;;;;;;5012280;28;20815;-74
2022/03/27 03:24:30;;;;;;;4.10;1.57;;;12.00;1.00;;;;;;5011398;28;20437;-74
2022/03/27 03:26:58;;;;;;;0.87;0.87;;;11.90;1.00;;;;;;5013603;28;20817;-73
2022/03/27 03:29:26;;;;;;;3.20;1.37;;;11.90;1.00;;;;;;5016476;28;20494;-74
2022/03/27 03:31:54;;;;;;;2.33;2.23;;;11.90;1.00;;;;;;5016946;28;20455;-73
2022/03/27 03:34:22;;;;;;;0.83;0.60;;;11.90;1.00;;;;;;5014959;28;20482;-74
2022/03/27 03:36:51;;;;;;;4.73;1.90;;;11.90;1.00;;;;;;5012316;28;20475;-73
2022/03/27 03:39:19;;;;;;;0.70;0.60;;;11.90;1.00;;;;;;5015738;28;20550;-73
2022/03/27 03:41:47;;;;;;;0.60;0.10;;;11.90;1.00;;;;;;5015130;28;20440;-73
2022/03/27 03:44:26;;;;;;;9.97;2.87;;;11.90;1.00;;;;;;5016217;28;20431;-73
2022/03/27 03:46:54;;;;;;;1.67;1.57;;;11.90;1.00;;;;;;5016047;28;20544;-73
2022/03/27 03:49:24;;;;;;;0.80;0.50;;;12.00;1.00;;;;;;5068983;22;20509;-71
2022/03/27 03:51:53;;;;;;;0.60;0.10;;;11.90;1.00;;;;;;5052344;28;20533;-70
2022/03/27 03:54:21;;;;;;;0.70;0.53;;;11.90;1.00;;;;;;5056854;28;20438;-70
2022/03/27 03:56:49;;;;;;;1.00;0.70;;;11.90;1.00;;;;;;5059091;28;20987;-70
2022/03/27 03:59:18;;;;;;;2.40;1.27;;;11.90;1.00;;;;;;5054005;28;21022;-70
2022/03/27 04:02:01;;;;;;;0.60;0.10;;;11.90;1.00;;;;;;5054109;28;20446;-69
2022/03/27 04:04:30;;;;;;;0.60;0.20;;;11.90;1.00;;;;;;5046632;28;20465;-69
2022/03/27 04:07:00;;;;;;;0.60;0.10;;;11.90;1.00;;;;;;5055257;28;20465;-70
2022/03/27 04:09:29;;;;;;;0.90;0.63;;;11.80;1.00;;;;;;5056962;28;20469;-69
2022/03/27 04:11:57;;;;;;;0.60;0.30;;;11.80;1.00;;;;;;5054574;28;20545;-69
2022/03/27 04:14:25;;;;;;;0.60;0.10;;;11.80;1.00;;;;;;5053629;28;20451;-70
2022/03/27 04:16:53;;;;;;;0.60;0.10;;;11.70;1.00;;;;;;5042135;28;20478;-70
2022/03/27 04:19:21;;;;;;;0.60;0.10;;;11.70;1.00;;;;;;5053280;28;20828;-68
2022/03/27 04:21:49;;;;;;;0.70;0.33;;;11.70;1.00;;;;;;5054063;28;20438;-69
2022/03/27 04:24:19;;;;;;;0.60;0.10;;;11.60;1.00;;;;;;5053802;28;20442;-69
2022/03/27 04:26:47;;;;;;;0.60;0.40;;;11.60;1.00;;;;;;5071639;28;20896;-71
2022/03/27 04:29:15;;;;;;;5.70;2.43;;;11.60;1.00;;;;;;5073597;28;20906;-69
2022/03/27 04:31:43;;;;;;;1.60;1.50;;;11.60;1.00;;;;;;5067119;28;21006;-69
2022/03/27 04:34:11;;;;;;;3.70;3.33;;;11.50;1.00;;;;;;5053946;28;20454;-69
2022/03/27 04:36:40;;;;;;;1.03;0.93;;;11.50;1.00;;;;;;5053638;28;20474;-70
2022/03/27 04:39:08;;;;;;;0.60;0.10;;;11.50;1.00;;;;;;5053568;28;20477;-69
2022/03/27 04:41:39;;;;;;;1.80;1.70;;;11.40;1.00;;;;;;5052912;28;20945;-68
2022/03/27 04:44:08;;;;;;;0.60;0.10;;;11.40;1.00;;;;;;5050456;28;20443;-69
2022/03/27 04:46:36;;;;;;;0.60;0.10;;;11.40;1.00;;;;;;5053376;28;20439;-69
2022/03/27 04:49:04;;;;;;;0.60;0.40;;;11.40;1.00;;;;;;5052805;28;20493;-69
2022/03/27 04:51:32;;;;;;;0.60;0.30;;;11.40;1.00;;;;;;5053186;28;20517;-70
2022/03/27 04:54:00;;;;;;;0.60;0.10;;;11.40;1.00;;;;;;5053149;28;20435;-69
2022/03/27 04:56:27;;;;;;;0.60;0.10;;;11.40;1.00;;;;;;5053189;28;20439;-70
2022/03/27 04:58:57;;;;;;;5.27;5.00;;;;;;;;;;5053048;28;20557;-70
2022/03/27 05:01:25;;;;;;;0.60;0.10;;;11.40;1.00;;;;;;5053000;28;20461;-70
2022/03/27 05:03:53;;;;;;;0.60;0.10;;;11.40;1.00;;;;;;5053369;28;20446;-70
2022/03/27 05:06:21;;;;;;;0.60;0.10;;;11.40;1.00;;;;;;5035589;28;20451;-70
2022/03/27 05:08:50;;;;;;;0.60;0.10;;;11.40;1.00;;;;;;5033088;28;20473;-71
2022/03/27 05:11:17;;;;;;;0.60;0.10;;;11.50;1.00;;;;;;5033433;28;20439;-69
2022/03/27 05:13:45;;;;;;;0.60;0.20;;;11.50;1.00;;;;;;5033168;28;20898;-69
2022/03/27 05:16:15;;;;;;;0.60;0.10;;;11.50;1.00;;;;;;5032737;28;20447;-70
2022/03/27 05:18:43;;;;;;;0.60;0.10;;;11.40;1.00;;;;;;5050287;28;20490;-69
2022/03/27 05:21:11;;;;;;;0.70;0.20;;;11.40;1.00;;;;;;5052428;28;20918;-69
2022/03/27 05:23:38;;;;;;;0.60;0.10;;;11.50;1.00;;;;;;5052052;28;20461;-69
2022/03/27 05:26:06;;;;;;;0.70;0.40;;;11.40;1.00;;;;;;5052777;28;20442;-68
2022/03/27 05:28:34;;;;;;;0.60;0.10;;;11.40;1.00;;;;;;5052430;28;20464;-70
2022/03/27 05:31:04;;;;;;;0.60;0.10;;;11.40;1.00;;;;;;5040198;28;20543;-69
2022/03/27 05:33:33;;;;;;;0.60;0.10;;;11.40;1.00;;;;;;5032307;28;20835;-69
2022/03/27 05:36:00;;;;;;;0.60;0.10;;;11.40;1.00;;;;;;5032895;28;20443;-69
2022/03/27 05:38:28;;;;;;;0.60;0.10;;;11.40;1.00;;;;;;5032582;28;20483;-70
2022/03/27 05:40:56;;;;;;;0.60;0.10;;;11.40;1.00;;;;;;5052760;28;20458;-69
2022/03/27 05:43:24;;;;;;;0.60;0.30;;;11.40;1.00;;;;;;5052621;28;20444;-68
2022/03/27 05:45:53;;;;;;;0.70;0.30;;;11.40;1.00;;;;;;5052549;28;20533;-69
2022/03/27 05:48:21;;;;;;;0.60;0.10;;;11.30;1.00;;;;;;5051975;28;20466;-70
2022/03/27 05:50:51;;;;;;;0.83;0.47;;;11.20;1.00;;;;;;5052746;28;20446;-70
2022/03/27 05:53:19;;;;;;;0.60;0.17;;;11.20;1.00;;;;;;5052445;28;20859;-69
2022/03/27 05:55:47;;;;;;;1.10;0.93;;;11.20;1.00;;;;;;5050422;28;20447;-71
2022/03/27 05:58:16;;;;;;;0.90;0.73;;;11.20;1.00;;;;;;5052164;28;20518;-70
2022/03/27 06:00:44;;;;;;;1.97;1.17;;;11.20;1.00;;;;;;5050297;28;20450;-70
2022/03/27 06:03:12;;;;;;;0.60;0.10;;;11.10;1.00;;;;;;5035219;28;20534;-70
2022/03/27 06:05:40;;;;;;;0.60;0.20;;;;;;;;;;5038060;28;20435;-69
2022/03/27 06:08:10;;;;;;;0.60;0.10;;;11.20;1.00;;;;;;5041529;28;20481;-68
2022/03/27 06:10:39;;;;;;;0.70;0.33;;;11.20;1.00;;;;;;5042581;28;20430;-70
2022/03/27 06:13:08;;;;;;;0.97;0.93;;;11.30;1.00;;;;;;5041632;28;20534;-70
2022/03/27 06:15:36;;;;;;;0.60;0.10;;;11.30;1.00;;;;;;5042657;28;20530;-69
2022/03/27 06:18:04;;;;;;;0.60;0.10;;;11.20;1.00;;;;;;5041696;28;20945;-70
2022/03/27 06:20:32;;;;;;;2.30;2.00;;;11.20;1.00;;;;;;5042822;28;20445;-69
2022/03/27 06:23:01;;;;;;;0.97;0.87;;;11.20;1.00;;;;;;5040469;28;20446;-69
2022/03/27 06:25:31;;;;;;;1.00;0.70;;;11.20;1.00;;;;;;5046250;28;20437;-70
2022/03/27 06:27:59;;;;;;;0.60;0.10;;;11.20;1.00;;;;;;5042482;28;20466;-70
2022/03/27 06:30:28;;;;;;;0.60;0.10;;;11.20;1.00;;;;;;5041574;28;20447;-68
2022/03/27 06:32:59;;;;;;;1.87;1.20;;;11.30;1.00;;;;;;5038178;28;20878;-69
2022/03/27 06:35:27;;;;;;;1.43;1.17;;;11.30;1.00;;;;;;5051079;28;20487;-70
2022/03/27 06:37:56;;;;;;;1.63;1.03;;;11.40;1.00;;;;;;5053550;28;20474;-70
2022/03/27 06:40:24;;;;;;;1.63;1.33;;;11.40;1.00;;;;;;5053234;28;20447;-69
2022/03/27 06:42:54;;;;;;;1.50;1.40;;;11.40;1.00;;;;;;5040638;28;20751;-69
2022/03/27 06:45:22;;;;;;;0.80;0.57;;;11.40;1.00;;;;;;5035389;28;20465;-70
2022/03/27 06:47:51;;;;;;;0.60;0.20;;;11.50;1.00;;;;;;5031657;28;20505;-70
2022/03/27 06:50:21;;;;;;;0.60;0.10;;;11.50;1.00;;;;;;5051439;28;20450;-70
2022/03/27 06:52:50;;;;;;;1.90;1.80;;;11.50;1.00;;;;;;5045150;28;20435;-71
2022/03/27 06:55:18;;;;;;;4.20;4.03;;;11.50;1.00;;;;;;5048560;28;20441;-70
2022/03/27 06:57:47;;;;;;;0.70;0.47;;;11.60;1.00;;;;;;5048394;28;20474;-70
2022/03/27 07:03:03;;;;;;;0.60;0.20;;;11.70;1.00;;;;;;5040917;28;20493;-70
2022/03/27 07:05:32;;;;;;;0.60;0.20;;;11.80;1.00;;;;;;5038390;28;20439;-70
2022/03/27 07:08:04;;;;;;;0.80;0.43;;;11.80;1.00;;;;;;5051527;28;20438;-70
2022/03/27 07:10:33;;;;;;;2.90;0.63;;;11.80;1.00;;;;;;5051678;28;20450;-71
2022/03/27 07:13:01;;;;;;;1.33;1.23;;;11.90;1.00;;;;;;5054490;28;20462;-69
2022/03/27 07:15:30;;;;;;;0.80;0.50;;;11.90;1.00;;;;;;5045566;28;20476;-69
2022/03/27 07:17:59;;;;;;;1.47;0.40;;;11.90;1.00;;;;;;5035373;28;20486;-70
2022/03/27 07:20:31;;;;;;;0.60;0.10;;;11.90;1.00;;;;;;5052787;28;20512;-72
2022/03/27 07:23:00;;;;;;;0.60;0.10;;;12.10;1.00;;;;;;5044164;28;20448;-69
2022/03/27 07:25:32;;;;;;;0.60;0.10;;;12.10;1.00;;;;;;5052884;28;20469;-69
2022/03/27 07:28:00;;;;;;;0.60;0.20;;;12.20;1.00;;;;;;5051115;28;20485;-70
2022/03/27 07:30:30;;;;;;;0.60;0.10;;;12.20;1.00;;;;;;5060779;28;20518;-70
2022/03/27 07:32:58;;;;;;;0.60;0.17;;;12.30;1.00;;;;;;5052033;28;20453;-71
2022/03/27 07:35:26;;;;;;;0.60;0.10;;;12.30;1.00;;;;;;5048376;28;20439;-70
2022/03/27 07:37:54;;;;;;;0.93;0.83;;;12.50;1.00;;;;;;5049846;28;20450;-71
2022/03/27 07:40:23;;;;;;;0.60;0.10;;;12.60;1.00;;;;;;5049867;28;20446;-69
2022/03/27 07:42:53;;;;;;;0.60;0.20;;;12.60;1.00;;;;;;5053459;28;20458;-71
2022/03/27 07:45:25;;;;;;;1.37;1.20;;;12.60;1.00;;;;;;5042962;28;20463;-70
2022/03/27 07:47:55;;;;;;;0.60;0.10;;;12.70;1.00;;;;;;5041503;28;20440;-70
2022/03/27 07:50:25;;;;;;;3.73;2.60;;;12.70;1.00;;;;;;5038168;28;20435;-71
2022/03/27 07:52:53;;;;;;;3.93;3.63;;;12.70;1.00;;;;;;5037743;28;20446;-69
2022/03/27 07:55:22;;;;;;;6.07;5.50;;;12.70;1.00;;;;;;5043571;28;20497;-70
2022/03/27 07:57:54;;;;;;;2.30;0.77;;;12.80;1.00;;;;;;5044309;28;20538;-70
2022/03/27 08:00:22;;;;;;;5.13;1.80;;;12.80;1.00;;;;;;5044867;28;20817;-69
2022/03/27 08:02:51;;;;;;;0.60;0.10;;;12.80;1.00;;;;;;5048411;28;20443;-71
2022/03/27 08:05:22;;;;;;;0.60;0.10;;;12.90;1.00;;;;;;5039279;28;20792;-69
2022/03/27 08:07:50;;;;;;;0.90;0.70;;;13.00;1.00;;;;;;5048405;28;20430;-70
2022/03/27 08:10:18;;;;;;;4.87;1.50;;;12.90;1.00;;;;;;5052685;28;20527;-70
2022/03/27 08:12:46;;;;;;;0.60;0.20;;;13.00;1.00;;;;;;5044352;28;20515;-69
2022/03/27 08:15:17;;;;;;;1.47;0.70;;;13.10;1.00;;;;;;5050436;28;20447;-69
2022/03/27 08:17:51;;;;;;;0.60;0.10;;;13.20;1.00;;;;;;5049992;28;20941;-69
2022/03/27 08:20:21;;;;;;;6.00;1.13;;;;;;;;;;5051444;28;20589;-71
2022/03/27 08:22:50;;;;;;;0.60;0.20;;;13.30;1.00;;;;;;5061231;28;20451;-70
2022/03/27 08:27:59;;;;;;;0.60;0.13;;;13.50;1.00;;;;;;5038467;28;20453;-71
2022/03/27 08:30:27;;;;;;;0.60;0.10;;;13.50;1.00;;;;;;5041533;28;20437;-69
2022/03/27 08:32:55;;;;;;;3.70;0.80;;;13.60;1.00;;;;;;5039730;28;20534;-69
2022/03/27 08:35:24;;;;;;;0.60;0.10;;;13.60;1.00;;;;;;5031938;28;20826;-70
2022/03/27 08:37:52;;;;;;;0.60;0.13;;;13.80;1.00;;;;;;5039653;28;20977;-70
2022/03/27 08:40:21;;;;;;;0.60;0.10;;;13.80;1.00;;;;;;5031773;28;21051;-70
2022/03/27 08:42:50;;;;;;;0.60;0.20;;;13.90;1.00;;;;;;5032292;28;20601;-71
2022/03/27 08:45:20;;;;;;;0.60;0.10;;;;;;;;;;5042892;28;20998;-76
2022/03/27 08:47:48;;;;;;;0.60;0.10;;;14.20;1.00;;;;;;5046665;28;20827;-68
2022/03/27 08:50:30;;;;;;;0.60;0.10;;;14.30;1.00;;;;;;5045221;28;20456;-69
2022/03/27 08:53:00;;;;;;;0.60;0.50;;;14.30;1.00;;;;;;5045659;28;20532;-69
2022/03/27 08:55:40;;;;;;;0.60;0.10;;;14.40;1.00;;;;;;5041797;28;20463;-70
2022/03/27 08:58:09;;;;;;;0.70;0.10;;;14.50;1.00;;;;;;5041772;28;20452;-70
2022/03/27 09:00:38;;;;;;;0.70;0.50;;;14.50;1.00;;;;;;5042289;28;20470;-70
2022/03/27 09:03:07;;;;;;;0.60;0.10;;;14.60;1.00;;;;;;5043067;28;20457;-69
2022/03/27 09:05:38;;;;;;;0.60;0.10;;;14.70;1.00;;;;;;5049321;28;20497;-72
2022/03/27 09:08:09;;;;;;;0.60;0.10;;;14.80;1.00;;;;;;5047053;28;20446;-72
2022/03/27 09:10:40;;;;;;;0.60;0.10;;;14.80;1.00;;;;;;5035298;28;20447;-68
2022/03/27 09:13:12;;;;;;;0.60;0.10;;;14.80;1.00;;;;;;5034944;28;20475;-71
2022/03/27 09:15:39;;;;;;;5.13;2.23;;;14.90;1.00;;;;;;5048211;28;20475;-71
2022/03/27 09:18:09;;;;;;;1.63;0.70;;;15.10;1.00;;;;;;5052245;28;20478;-74
2022/03/27 09:20:41;;;;;;;1.10;0.70;;;;;;;;;;5050622;28;20486;-72
2022/03/27 09:23:20;;;;;;;0.60;0.10;;;15.40;1.00;;;;;;5064857;28;20862;-74
2022/03/27 09:25:50;;;;;;;0.60;0.10;;;15.50;1.00;;;;;;5054752;28;20449;-72
2022/03/27 09:28:29;;;;;;;0.60;0.33;;;;;;;;;;5053286;28;20498;-74
2022/03/27 09:30:59;;;;;;;0.80;0.67;;;;;;;;;;5056462;28;20516;-76
2022/03/27 09:33:47;;;;;;;0.60;0.17;;;16.20;99.90;;;;;;5055575;28;20515;-79
2022/03/27 09:36:19;;;;;;;0.60;0.20;;;16.20;99.90;;;;;;5050583;28;20490;-72
2022/03/27 09:39:03;;;;;;;1.23;1.13;;;16.40;99.90;;;;;;5049696;28;20465;-70
2022/03/27 09:41:36;;;;;;;0.60;0.10;;;;;;;;;;5047597;28;20446;-72
2022/03/27 09:44:07;;;;;;;0.60;0.13;;;16.40;99.90;;;;;;5051036;28;20538;-70
2022/03/27 09:46:57;;;;;;;0.60;0.17;;;16.30;99.90;;;;;;5050836;28;20990;-70
2022/03/27 09:49:40;;;;;;;2.60;2.50;;;16.40;99.90;;;;;;5046445;28;21117;-70
2022/03/27 09:52:11;;;;;;;0.60;0.10;;;16.40;99.90;;;;;;5050863;28;20838;-71
2022/03/27 09:54:51;;;;;;;0.60;0.10;;;16.50;99.90;;;;;;5031629;28;20449;-71
2022/03/27 09:57:20;;;;;;;0.60;0.20;;;;;;;;;;5029730;28;20449;-78
2022/03/27 09:59:49;;;;;;;0.60;0.10;;;16.90;99.90;;;;;;5039861;28;21021;-76
2022/03/27 10:02:51;;;;;;;0.60;0.10;;;17.10;99.90;;;;;;5101541;22;20596;-72
2022/03/27 10:05:20;;;;;;;0.60;0.10;;;17.10;99.90;;;;;;5045906;28;20503;-74
2022/03/27 10:07:50;;;;;;;0.60;0.10;;;17.30;99.90;;;;;;5050827;28;20471;-71
2022/03/27 10:10:20;;;;;;;0.60;0.20;;;17.30;99.90;;;;;;5053212;28;20541;-72
2022/03/27 10:12:50;;;;;;;0.60;0.10;;;17.60;99.90;;;;;;5044934;28;20817;-75
2022/03/27 10:15:20;;;;;;;0.60;0.20;;;17.50;99.90;;;;;;5035565;28;20433;-73
2022/03/27 10:17:56;;;;;;;0.60;0.20;;;17.50;99.90;;;;;;5039620;28;20528;-69
2022/03/27 10:20:29;;;;;;;0.60;0.10;;;17.60;99.90;;;;;;5039141;28;20450;-73
2022/03/27 10:23:03;;;;;;;0.80;0.40;;;17.80;99.90;;;;;;5039931;28;20568;-72
2022/03/27 10:25:40;;;;;;;0.60;0.20;;;17.80;99.90;;;;;;5039233;28;20973;-73
2022/03/27 10:28:09;;;;;;;0.70;0.50;;;17.70;99.90;;;;;;5041031;28;20472;-72
2022/03/27 10:30:38;;;;;;;0.60;0.10;;;17.80;99.90;;;;;;5042156;28;20462;-75
2022/03/27 10:33:10;;;;;;;0.60;0.20;;;17.90;99.90;;;;;;5042744;28;20472;-72
2022/03/27 10:35:46;;;;;;;0.60;0.10;;;17.90;99.90;;;;;;5048350;28;20330;-73
2022/03/27 10:38:22;;;;;;;0.60;0.10;;;17.90;99.90;;;;;;5040765;28;20212;-76
2022/03/27 10:40:59;;;;;;;0.60;0.20;;;17.90;99.90;;;;;;5049979;28;20956;-81
2022/03/27 10:43:41;;;;;;;0.60;0.10;;;18.00;99.90;;;;;;5047488;28;20470;-75
2022/03/27 10:46:17;;;;;;;0.60;0.10;;;18.00;99.90;;;;;;5054841;28;20442;-75
2022/03/27 10:48:48;;;;;;;2.83;2.63;;;18.10;99.90;;;;;;5061551;28;20438;-76
2022/03/27 10:51:38;;;;;;;0.60;0.10;;;18.10;99.90;;;;;;5061096;28;20479;-73
2022/03/27 10:54:07;;;;;;;0.60;0.13;;;18.20;99.90;;;;;;5054651;28;20476;-79
2022/03/27 10:56:37;;;;;;;0.60;0.20;;;18.20;99.90;;;;;;5053211;28;20453;-78
2022/03/27 10:59:17;;;;;;;0.60;0.10;;;18.30;99.90;;;;;;5053594;28;20445;-74
2022/03/27 11:01:50;;;;;;;0.60;0.20;;;18.30;99.90;;;;;;5055219;28;20480;-76
2022/03/27 11:04:36;;;;;;;0.60;0.20;;;18.40;99.90;;;;;;5055814;28;20487;-79
2022/03/27 11:07:20;;;;;;;0.60;0.20;;;18.40;99.90;;;;;;5054237;28;20460;-78
2022/03/27 11:09:48;;;;;;;0.60;0.10;;;18.40;99.90;;;;;;5054262;28;20436;-80
2022/03/27 11:12:29;;;;;;;0.70;0.47;;;18.40;99.90;;;;;;5050681;28;20476;-78
2022/03/27 11:14:59;;;;;;;0.60;0.13;;;18.40;99.90;;;;;;5039575;28;20535;-78
2022/03/27 11:17:42;;;;;;;0.60;0.10;;;18.40;99.90;;;;;;5041450;28;20452;-79
2022/03/27 11:20:28;;;;;;;0.60;0.10;;;18.40;99.90;;;;;;5041131;28;20947;-76
2022/03/27 11:22:57;;;;;;;0.60;0.10;;;18.50;99.90;;;;;;5041533;28;20482;-79
2022/03/27 11:25:38;;;;;;;0.60;0.10;;;18.50;99.90;;;;;;5046039;28;20449;-77
2022/03/27 11:28:12;;;;;;;0.60;0.10;;;18.50;99.90;;;;;;5046602;28;20454;-74
2022/03/27 11:30:56;;;;;;;0.60;0.10;;;18.60;99.90;;;;;;5050448;28;20442;-76
2022/03/27 11:33:26;;;;;;;0.60;0.13;;;18.50;99.90;;;;;;5051009;28;20476;-74
2022/03/27 11:36:24;;;;;;;0.70;0.60;;;18.50;99.90;;;;;;5047702;28;20460;-76
2022/03/27 11:39:02;;;;;;;0.60;0.10;;;18.50;99.90;;;;;;5045997;28;20453;-79
2022/03/27 11:41:38;;;;;;;1.60;1.50;;;18.70;99.90;;;;;;5048897;28;20474;-75
2022/03/27 11:45:06;;;;;;;0.60;0.10;;;18.80;99.90;;;;;;5047213;28;20465;-75
2022/03/27 11:47:16;;;;;;;1.33;1.23;;;18.90;99.90;;;;;;5045984;28;20463;-79
2022/03/27 11:49:44;;;;;;;0.70;0.43;;;19.00;99.90;;;;;;5043894;28;20664;-76
2022/03/27 11:52:15;;;;;;;0.60;0.20;;;19.00;99.90;;;;;;5042403;28;20545;-77
2022/03/27 11:54:48;;;;;;;0.60;0.30;;;19.10;99.90;;;;;;5041661;28;20513;-79
2022/03/27 11:57:16;;;;;;;3.17;1.53;;;19.10;99.90;;;;;;5035903;28;20562;-77
2022/03/27 11:59:46;;;;;;;0.90;0.80;;;19.20;99.90;;;;;;5037011;28;20488;-81
2022/03/27 12:02:15;;;;;;;0.60;0.10;;;19.10;99.90;;;;;;5034012;28;21007;-77
2022/03/27 12:04:54;;;;;;;0.90;0.83;;;19.10;99.90;;;;;;5040157;28;20440;-80
2022/03/27 12:07:26;;;;;;;0.60;0.20;;;19.10;99.90;;;;;;5036452;28;20461;-79
2022/03/27 12:09:58;;;;;;;1.90;1.70;;;19.10;99.90;;;;;;5041493;28;20453;-80
2022/03/27 12:12:28;;;;;;;0.60;0.10;;;19.00;99.90;;;;;;5037111;28;20447;-77
2022/03/27 12:14:59;;;;;;;0.60;0.10;;;19.00;99.90;;;;;;5043196;28;20500;-77
2022/03/27 12:17:31;;;;;;;0.60;0.30;;;19.00;99.90;;;;;;5044648;28;20474;-80
2022/03/27 12:20:01;;;;;;;0.60;0.20;;;19.10;99.90;;;;;;5035993;28;20472;-79
2022/03/27 12:22:34;;;;;;;0.60;0.10;;;19.20;99.90;;;;;;5030088;28;20497;-78
2022/03/27 12:25:04;;;;;;;0.60;0.20;;;19.20;99.90;;;;;;5023500;28;20454;-76
2022/03/27 12:30:18;;;;;;;0.97;0.87;;;19.30;99.90;;;;;;5030000;28;20465;-79
2022/03/27 12:32:47;;;;;;;0.60;0.20;;;19.30;99.90;;;;;;5033029;28;20533;-78
2022/03/27 12:35:23;;;;;;;0.60;0.20;;;19.40;99.90;;;;;;5036469;28;20472;-80
2022/03/27 12:37:52;;;;;;;1.73;0.80;;;19.40;99.90;;;;;;5031478;28;20473;-79
2022/03/27 12:40:20;;;;;;;1.37;0.93;;;19.40;99.90;;;;;;5033803;28;20502;-79
2022/03/27 12:42:49;;;;;;;0.60;0.10;;;19.40;99.90;;;;;;5033698;28;20500;-77
2022/03/27 12:45:22;;;;;;;0.60;0.10;;;19.50;99.90;;;;;;5033731;28;20458;-79
2022/03/27 12:47:51;;;;;;;0.60;0.20;;;19.50;99.90;;;;;;5037147;28;20456;-78
2022/03/27 12:50:32;;;;;;;0.60;0.10;;;19.50;99.90;;;;;;5042310;28;20464;-78
2022/03/27 12:53:03;;;;;;;0.60;0.10;;;19.50;99.90;;;;;;5038684;28;20469;-79
2022/03/27 12:55:45;;;;;;;0.83;0.50;;;19.50;99.90;;;;;;5036821;28;20882;-78
2022/03/27 12:58:16;;;;;;;0.60;0.10;;;19.60;99.90;;;;;;5044526;28;20518;-78
2022/03/27 13:00:45;;;;;;;0.60;0.10;;;19.60;99.90;;;;;;5041394;28;20485;-80
2022/03/27 13:03:16;;;;;;;1.03;0.93;;;19.70;99.90;;;;;;5035227;28;20493;-76
2022/03/27 13:06:00;;;;;;;0.60;0.10;;;20.00;99.90;;;;;;5036489;28;20529;-79
2022/03/27 13:08:31;;;;;;;0.60;0.20;;;19.80;99.90;;;;;;5039676;28;20454;-74
2022/03/27 13:11:00;;;;;;;1.10;0.97;;;19.70;99.90;;;;;;5033959;28;20504;-73
2022/03/27 13:13:36;;;;;;;1.23;0.83;;;19.90;99.90;;;;;;5025701;28;20454;-76
2022/03/27 13:16:24;;;;;;;0.60;0.10;;;19.90;99.90;;;;;;5034319;28;20504;-75
2022/03/27 13:19:03;;;;;;;0.60;0.10;;;19.90;99.90;;;;;;5036938;28;20537;-79
2022/03/27 13:21:33;;;;;;;0.60;0.10;;;20.00;99.90;;;;;;5034567;28;20510;-76